createdAt,value
2022-09-17T00:01:52.863Z,9.80
2022-09-17T00:03:55.805Z,3.80
2022-09-17T00:06:15.827Z,4.68
2022-09-17T00:08:17.305Z,5.18
2022-09-17T00:10:19.487Z,10.25
2022-09-17T00:12:20.911Z,8.70
2022-09-17T00:14:22.315Z,6.43
2022-09-17T00:16:25.908Z,5.65
2022-09-17T00:18:27.458Z,4.80
2022-09-17T00:20:29.154Z,3.45
2022-09-17T00:22:30.713Z,5.88
2022-09-17T00:24:33.155Z,5.20
2022-09-17T00:26:36.870Z,8.75
2022-09-17T00:28:38.462Z,8.35
2022-09-17T00:30:44.088Z,8.05
2022-09-17T00:32:45.546Z,5.90
2022-09-17T00:34:49.125Z,2.97
2022-09-17T00:36:50.933Z,4.65
2022-09-17T00:38:53.362Z,3.40
2022-09-17T00:40:56.011Z,2.85
2022-09-17T00:42:57.451Z,6.10
2022-09-17T00:44:59.242Z,3.45
2022-09-17T00:47:01.221Z,6.20
2022-09-17T00:49:05.069Z,3.95
2022-09-17T00:51:09.246Z,4.88
2022-09-17T00:55:16.103Z,5.88
2022-09-17T00:57:17.812Z,5.50
2022-09-17T00:59:23.070Z,6.63
2022-09-17T01:01:24.863Z,6.75
2022-09-17T01:03:27.361Z,5.80
2022-09-17T01:05:39.022Z,5.55
2022-09-17T01:07:47.021Z,4.00
2022-09-17T01:09:54.378Z,3.78
2022-09-17T01:11:58.957Z,5.82
2022-09-17T01:14:02.039Z,6.47
2022-09-17T01:16:06.440Z,3.08
2022-09-17T01:18:10.566Z,3.92
2022-09-17T01:20:15.116Z,3.40
2022-09-17T01:22:26.499Z,3.05
2022-09-17T01:24:40.213Z,7.47
2022-09-17T01:26:44.366Z,2.07
2022-09-17T01:28:55.165Z,3.28
2022-09-17T01:31:05.359Z,6.10
2022-09-17T01:33:12.326Z,2.95
2022-09-17T01:35:17.566Z,3.03
2022-09-17T01:37:28.892Z,3.85
2022-09-17T01:39:52.947Z,2.25
2022-09-17T01:42:15.578Z,3.65
2022-09-17T01:44:29.803Z,4.82
2022-09-17T01:46:33.841Z,7.85
2022-09-17T01:48:37.491Z,2.42
2022-09-17T01:50:46.719Z,6.15
2022-09-17T01:52:50.093Z,1.65
2022-09-17T01:54:54.526Z,2.58
2022-09-17T01:57:02.041Z,6.80
2022-09-17T01:59:22.286Z,3.10
2022-09-17T02:01:24.917Z,4.38
2022-09-17T02:03:30.561Z,2.83
2022-09-17T02:05:39.501Z,5.50
2022-09-17T02:07:43.124Z,1.95
2022-09-17T02:09:48.966Z,4.57
2022-09-17T02:11:52.516Z,2.05
2022-09-17T02:14:03.875Z,4.18
2022-09-17T02:16:07.829Z,5.55
2022-09-17T02:18:24.579Z,3.60
2022-09-17T02:20:28.830Z,1.50
2022-09-17T02:24:43.812Z,5.53
2022-09-17T02:26:48.655Z,1.93
2022-09-17T02:28:54.149Z,3.65
2022-09-17T02:30:57.527Z,4.43
2022-09-17T02:33:01.168Z,1.73
2022-09-17T02:35:04.542Z,3.95
2022-09-17T02:37:08.399Z,2.53
2022-09-17T02:39:11.246Z,2.90
2022-09-17T02:41:19.563Z,3.95
2022-09-17T02:43:22.968Z,2.92
2022-09-17T02:46:01.390Z,6.30
2022-09-17T02:48:22.481Z,2.47
2022-09-17T02:50:25.858Z,2.25
2022-09-17T02:52:36.461Z,4.83
2022-09-17T02:55:01.248Z,6.57
2022-09-17T02:57:27.809Z,3.35
2022-09-17T02:59:37.867Z,2.40
2022-09-17T03:01:44.423Z,4.95
2022-09-17T03:03:46.986Z,6.82
2022-09-17T03:05:48.474Z,3.00
2022-09-17T03:07:50.564Z,3.70
2022-09-17T03:09:52.370Z,3.47
2022-09-17T03:11:53.807Z,5.18
2022-09-17T03:13:55.471Z,2.63
2022-09-17T03:15:57.210Z,4.45
2022-09-17T03:17:58.929Z,4.03
2022-09-17T03:20:00.402Z,2.75
2022-09-17T03:22:01.861Z,2.45
2022-09-17T03:24:03.382Z,1.55
2022-09-17T03:26:06.393Z,2.03
2022-09-17T03:28:07.827Z,3.67
2022-09-17T03:30:09.634Z,3.80
2022-09-17T03:32:11.169Z,3.90
2022-09-17T03:34:12.614Z,4.97
2022-09-17T03:36:14.296Z,2.15
2022-09-17T03:38:15.830Z,2.28
2022-09-17T03:40:18.030Z,2.35
2022-09-17T03:42:19.533Z,3.10
2022-09-17T03:44:23.030Z,1.38
2022-09-17T03:46:24.614Z,1.50
2022-09-17T03:48:26.569Z,0.73
2022-09-17T03:50:28.002Z,1.33
2022-09-17T03:52:29.493Z,9.75
2022-09-17T03:54:30.947Z,2.55
2022-09-17T03:56:32.470Z,3.83
2022-09-17T03:58:34.012Z,1.88
2022-09-17T04:00:37.740Z,6.13
2022-09-17T04:02:39.550Z,2.60
2022-09-17T04:04:41.049Z,2.00
2022-09-17T04:06:42.511Z,4.15
2022-09-17T04:08:43.990Z,5.10
2022-09-17T04:10:45.771Z,1.98
2022-09-17T04:12:47.250Z,3.90
2022-09-17T04:14:48.714Z,7.78
2022-09-17T04:16:50.261Z,5.57
2022-09-17T04:18:51.703Z,1.27
2022-09-17T04:20:53.638Z,2.78
2022-09-17T04:22:55.342Z,2.45
2022-09-17T04:24:56.841Z,1.88
2022-09-17T04:26:58.500Z,5.70
2022-09-17T04:29:01.023Z,1.23
2022-09-17T04:31:02.494Z,5.00
2022-09-17T04:33:04.361Z,2.05
2022-09-17T04:35:06.294Z,1.52
2022-09-17T04:37:07.769Z,1.85
2022-09-17T04:39:09.299Z,2.92
2022-09-17T04:41:11.014Z,4.38
2022-09-17T04:43:12.457Z,3.97
2022-09-17T04:45:13.957Z,2.08
2022-09-17T04:47:15.413Z,0.93
2022-09-17T04:49:17.009Z,1.45
2022-09-17T04:51:18.406Z,2.50
2022-09-17T04:53:20.067Z,3.28
2022-09-17T04:55:21.594Z,1.48
2022-09-17T04:57:25.501Z,3.17
2022-09-17T04:59:26.920Z,2.88
2022-09-17T05:01:28.485Z,1.20
2022-09-17T05:03:30.015Z,4.90
2022-09-17T05:05:31.523Z,1.65
2022-09-17T05:07:33.003Z,1.35
2022-09-17T05:09:34.712Z,1.35
2022-09-17T05:11:36.182Z,4.18
2022-09-17T05:13:38.286Z,1.60
2022-09-17T05:15:39.719Z,3.72
2022-09-17T05:17:41.359Z,5.75
2022-09-17T05:19:42.888Z,5.00
2022-09-17T05:21:44.314Z,2.45
2022-09-17T05:23:46.091Z,2.90
2022-09-17T05:25:47.528Z,1.88
2022-09-17T05:27:48.960Z,3.35
2022-09-17T05:29:50.667Z,1.40
2022-09-17T05:31:53.654Z,1.65
2022-09-17T05:33:57.078Z,3.10
2022-09-17T05:36:07.659Z,3.42
2022-09-17T05:38:16.665Z,0.68
2022-09-17T05:40:25.734Z,1.20
2022-09-17T05:42:35.301Z,0.70
2022-09-17T05:44:45.077Z,2.45
2022-09-17T05:46:54.779Z,4.65
2022-09-17T05:49:04.830Z,1.13
2022-09-17T05:51:13.527Z,4.10
2022-09-17T05:53:22.722Z,6.78
2022-09-17T05:55:32.749Z,1.88
2022-09-17T05:57:43.410Z,2.95
2022-09-17T05:59:47.461Z,2.55
2022-09-17T06:01:49.056Z,1.40
2022-09-17T06:03:50.557Z,1.58
2022-09-17T06:05:56.261Z,1.10
2022-09-17T06:07:57.730Z,0.82
2022-09-17T06:09:59.287Z,4.18
2022-09-17T06:12:00.767Z,1.95
2022-09-17T06:14:02.343Z,3.35
2022-09-17T06:16:04.125Z,0.65
2022-09-17T06:18:05.609Z,1.15
2022-09-17T06:20:07.504Z,3.42
2022-09-17T06:22:09.039Z,1.45
2022-09-17T06:24:10.719Z,0.77
2022-09-17T06:26:12.706Z,1.88
2022-09-17T06:28:14.130Z,4.07
2022-09-17T06:30:15.710Z,4.60
2022-09-17T06:32:17.238Z,2.53
2022-09-17T06:34:18.929Z,1.20
2022-09-17T06:36:20.473Z,5.03
2022-09-17T06:38:22.159Z,2.35
2022-09-17T06:40:23.749Z,2.30
2022-09-17T06:42:25.911Z,1.52
2022-09-17T06:44:27.710Z,4.25
2022-09-17T06:46:29.425Z,4.47
2022-09-17T06:48:33.435Z,1.02
2022-09-17T06:50:37.315Z,4.88
2022-09-17T06:52:52.035Z,2.83
2022-09-17T06:54:53.520Z,1.23
2022-09-17T06:56:55.214Z,1.50
2022-09-17T06:58:56.714Z,0.95
2022-09-17T07:00:59.804Z,1.38
2022-09-17T07:03:01.493Z,0.82
2022-09-17T07:05:02.944Z,1.80
2022-09-17T07:07:05.374Z,3.00
2022-09-17T07:09:10.859Z,2.10
2022-09-17T07:11:13.690Z,2.47
2022-09-17T07:13:15.318Z,3.17
2022-09-17T07:15:17.120Z,5.40
2022-09-17T07:17:18.568Z,2.20
2022-09-17T07:19:20.823Z,6.53
2022-09-17T07:21:22.532Z,0.90
2022-09-17T07:23:24.794Z,2.22
2022-09-17T07:25:27.027Z,1.27
2022-09-17T07:27:29.254Z,0.70
2022-09-17T07:29:31.634Z,0.98
2022-09-17T07:31:33.185Z,2.90
2022-09-17T07:33:35.318Z,1.20
2022-09-17T07:35:39.836Z,3.90
2022-09-17T07:37:41.511Z,3.20
2022-09-17T07:39:43.771Z,0.95
2022-09-17T07:41:45.324Z,1.13
2022-09-17T07:43:47.043Z,2.38
2022-09-17T07:45:48.460Z,2.83
2022-09-17T07:47:50.471Z,2.30
2022-09-17T07:49:51.882Z,1.00
2022-09-17T07:51:54.911Z,0.43
2022-09-17T07:53:57.923Z,6.35
2022-09-17T07:56:00.121Z,1.50
2022-09-17T07:58:01.612Z,2.75
2022-09-17T08:00:04.085Z,1.35
2022-09-17T08:02:09.197Z,1.97
2022-09-17T08:04:11.042Z,2.65
2022-09-17T08:06:13.456Z,0.80
2022-09-17T08:08:18.877Z,0.47
2022-09-17T08:10:23.013Z,0.77
2022-09-17T08:12:24.449Z,0.98
2022-09-17T08:14:29.755Z,3.10
2022-09-17T08:16:33.143Z,2.20
2022-09-17T08:18:35.715Z,2.67
2022-09-17T08:20:37.137Z,2.20
2022-09-17T08:22:38.700Z,2.20
2022-09-17T08:24:40.220Z,1.10
2022-09-17T08:26:41.899Z,1.17
2022-09-17T08:28:47.821Z,2.67
2022-09-17T08:30:50.552Z,1.50
2022-09-17T08:32:55.010Z,2.63
2022-09-17T08:34:58.398Z,6.45
2022-09-17T08:37:04.053Z,2.80
2022-09-17T08:39:06.862Z,1.67
2022-09-17T08:41:21.579Z,1.40
2022-09-17T08:43:30.684Z,3.67
2022-09-17T08:45:40.914Z,1.98
2022-09-17T08:47:56.163Z,2.83
2022-09-17T08:50:15.546Z,2.47
2022-09-17T08:52:32.473Z,3.17
2022-09-17T08:54:49.859Z,2.38
2022-09-17T08:57:21.115Z,3.40
2022-09-17T08:59:42.988Z,4.38
2022-09-17T09:01:56.449Z,3.72
2022-09-17T09:04:19.950Z,2.65
2022-09-17T09:06:30.953Z,3.33
2022-09-17T09:08:35.411Z,2.00
2022-09-17T09:10:49.658Z,2.00
2022-09-17T09:13:17.440Z,4.72
2022-09-17T09:18:17.955Z,3.30
2022-09-17T09:20:23.722Z,4.95
2022-09-17T09:22:45.568Z,2.03
2022-09-17T09:25:10.064Z,3.40
2022-09-17T09:27:19.380Z,1.88
2022-09-17T09:29:23.917Z,5.70
2022-09-17T09:31:28.662Z,8.13
2022-09-17T09:33:37.695Z,3.05
2022-09-17T09:35:41.559Z,3.10
2022-09-17T09:37:45.231Z,2.55
2022-09-17T09:39:49.320Z,3.25
2022-09-17T09:41:54.346Z,2.30
2022-09-17T09:44:05.107Z,1.08
2022-09-17T09:46:15.221Z,6.05
2022-09-17T09:48:23.115Z,4.07
2022-09-17T09:50:48.406Z,3.20
2022-09-17T09:53:04.477Z,2.50
2022-09-17T09:57:49.323Z,2.05
2022-09-17T09:59:51.019Z,2.25
2022-09-17T10:00:53.965Z,3.47
2022-09-17T10:01:52.579Z,2.10
2022-09-17T10:03:55.816Z,3.13
2022-09-17T10:06:01.527Z,2.15
2022-09-17T10:08:13.162Z,4.13
2022-09-17T10:10:14.674Z,2.25
2022-09-17T10:12:17.074Z,3.50
2022-09-17T10:14:24.256Z,4.95
2022-09-17T10:16:27.642Z,3.47
2022-09-17T10:18:29.186Z,1.55
2022-09-17T10:20:30.693Z,5.97
2022-09-17T10:22:42.573Z,6.38
2022-09-17T10:24:44.665Z,2.00
2022-09-17T10:26:46.190Z,4.15
2022-09-17T10:28:50.431Z,2.88
2022-09-17T10:30:56.618Z,4.38
2022-09-17T10:33:17.518Z,3.28
2022-09-17T10:35:18.932Z,2.88
2022-09-17T10:37:32.396Z,7.68
2022-09-17T10:39:36.396Z,5.40
2022-09-17T10:41:44.817Z,2.53
2022-09-17T10:43:46.294Z,3.33
2022-09-17T10:45:58.872Z,2.20
2022-09-17T10:48:02.954Z,3.70
2022-09-17T10:50:07.521Z,2.05
2022-09-17T10:52:11.954Z,1.42
2022-09-17T10:54:13.371Z,8.50
2022-09-17T10:56:26.568Z,3.47
2022-09-17T10:58:28.031Z,3.47
2022-09-17T11:00:44.160Z,10.40
2022-09-17T11:02:54.810Z,4.97
2022-09-17T11:05:05.381Z,1.70
2022-09-17T11:07:27.253Z,2.30
2022-09-17T11:09:47.813Z,3.47
2022-09-17T11:12:01.986Z,3.78
2022-09-17T11:14:12.775Z,1.17
2022-09-17T11:16:20.518Z,5.80
2022-09-17T11:18:37.506Z,6.40
2022-09-17T11:20:41.784Z,2.50
2022-09-17T11:23:08.226Z,2.97
2022-09-17T11:25:29.839Z,2.25
2022-09-17T11:27:47.827Z,2.83
2022-09-17T11:29:55.382Z,1.02
2022-09-17T11:32:00.552Z,3.85
2022-09-17T11:34:19.583Z,2.47
2022-09-17T11:36:24.091Z,3.03
2022-09-17T11:38:29.735Z,1.02
2022-09-17T11:40:35.249Z,1.05
2022-09-17T11:42:37.291Z,3.75
2022-09-17T11:44:41.588Z,4.40
2022-09-17T11:47:00.186Z,2.38
2022-09-17T11:52:12.448Z,2.67
2022-09-17T11:54:52.588Z,3.65
2022-09-17T11:57:32.588Z,2.72
2022-09-17T11:59:50.296Z,1.73
2022-09-17T12:01:54.654Z,4.32
2022-09-17T12:04:27.721Z,1.05
2022-09-17T12:07:00.529Z,4.57
2022-09-17T12:11:59.636Z,2.08
2022-09-17T12:14:08.762Z,7.65
2022-09-17T12:16:14.305Z,2.20
2022-09-17T12:18:32.185Z,2.78
2022-09-17T12:20:36.662Z,2.17
2022-09-17T12:24:42.471Z,3.37
2022-09-17T12:26:44.020Z,3.42
2022-09-17T12:28:45.663Z,3.08
2022-09-17T12:30:55.572Z,2.85
2022-09-17T12:33:18.723Z,5.00
2022-09-17T12:38:22.987Z,1.20
2022-09-17T12:40:27.738Z,3.72
2022-09-17T12:42:34.383Z,1.67
2022-09-17T12:44:42.230Z,1.05
2022-09-17T12:46:49.661Z,3.22
2022-09-17T12:48:59.939Z,2.28
2022-09-17T12:51:08.865Z,4.18
2022-09-17T12:53:10.481Z,2.08
2022-09-17T12:55:14.674Z,6.43
2022-09-17T12:57:22.218Z,1.50
2022-09-17T12:59:25.593Z,2.00
2022-09-17T13:05:45.284Z,1.85
2022-09-17T13:07:52.730Z,4.30
2022-09-17T13:10:17.174Z,3.90
2022-09-17T13:14:38.790Z,2.00
2022-09-17T13:16:43.277Z,1.30
2022-09-17T13:19:16.540Z,2.60
2022-09-17T13:33:50.951Z,5.70
2022-09-17T13:35:52.504Z,1.80
2022-09-17T13:46:00.501Z,9.60
2022-09-17T13:48:06.611Z,2.73
2022-09-17T13:50:10.665Z,1.45
2022-09-17T13:52:12.335Z,5.32
2022-09-17T14:18:36.578Z,5.60
2022-09-17T17:11:17.920Z,4.22
2022-09-17T17:13:19.526Z,4.20
2022-09-17T17:23:29.271Z,3.90
2022-09-17T17:25:31.177Z,1.65
2022-09-17T17:27:33.139Z,2.00
2022-09-17T17:29:35.435Z,1.20
2022-09-17T17:31:37.504Z,2.28
2022-09-17T17:33:39.149Z,2.10
2022-09-17T17:35:40.663Z,2.95
2022-09-17T17:37:42.877Z,2.60
2022-09-17T17:39:44.446Z,3.20
2022-09-17T17:41:49.719Z,3.63
2022-09-17T17:43:53.419Z,2.60
2022-09-17T17:45:54.885Z,1.73
2022-09-17T17:47:56.349Z,1.75
2022-09-17T17:49:57.886Z,4.68
2022-09-17T17:52:00.076Z,2.80
2022-09-17T17:54:01.510Z,2.45
2022-09-17T17:56:15.006Z,3.33
2022-09-17T17:58:23.244Z,3.10
2022-09-17T18:00:32.514Z,2.88
2022-09-17T18:02:42.212Z,3.67
2022-09-17T18:04:51.786Z,3.65
2022-09-17T18:07:01.547Z,2.03
2022-09-17T18:09:11.430Z,5.10
2022-09-17T18:11:17.484Z,2.60
2022-09-17T18:13:31.044Z,4.50
2022-09-17T18:17:51.400Z,3.10
2022-09-17T18:19:59.003Z,1.95
2022-09-17T18:22:08.910Z,5.15
2022-09-17T18:24:14.019Z,7.43
2022-09-17T18:26:40.786Z,9.85
2022-09-17T18:31:28.256Z,22.00
2022-09-17T18:33:29.962Z,12.38
2022-09-17T18:36:00.473Z,7.55
2022-09-17T18:38:05.945Z,4.57
2022-09-17T18:40:07.760Z,8.80
2022-09-17T18:42:09.382Z,7.38
2022-09-17T18:44:11.130Z,4.00
2022-09-17T18:46:12.612Z,3.08
2022-09-17T18:48:14.135Z,5.55
2022-09-17T18:50:15.624Z,4.20
2022-09-17T18:52:17.276Z,14.25
2022-09-17T18:54:18.686Z,7.20
2022-09-17T18:56:21.672Z,3.65
2022-09-17T18:58:23.032Z,6.20
2022-09-17T19:00:25.137Z,6.07
2022-09-17T19:02:26.995Z,9.55
2022-09-17T19:04:29.400Z,8.40
2022-09-17T19:06:32.225Z,4.82
2022-09-17T19:08:34.085Z,3.50
2022-09-17T19:10:35.529Z,9.45
2022-09-17T19:12:36.975Z,10.40
2022-09-17T19:14:38.763Z,5.10
2022-09-17T19:16:40.927Z,6.05
2022-09-17T19:18:43.001Z,4.30
2022-09-17T19:20:44.495Z,3.80
2022-09-17T19:22:46.250Z,5.18
2022-09-17T19:24:47.678Z,9.90
2022-09-17T19:26:51.044Z,10.07
2022-09-17T19:28:57.853Z,10.10
2022-09-17T19:30:59.702Z,8.60
2022-09-17T19:33:01.334Z,10.57
2022-09-17T19:35:04.414Z,13.88
2022-09-17T19:37:06.090Z,12.98
2022-09-17T19:39:07.497Z,14.35
2022-09-17T19:41:12.154Z,21.73
2022-09-17T19:43:15.130Z,13.18
2022-09-17T19:45:16.758Z,18.10
2022-09-17T19:47:18.182Z,17.70
2022-09-17T19:49:19.880Z,16.27
2022-09-17T19:51:23.531Z,11.85
2022-09-17T19:53:27.894Z,10.40
2022-09-17T19:55:29.307Z,15.80
2022-09-17T19:57:30.772Z,13.55
2022-09-17T19:59:32.228Z,13.27
2022-09-17T20:01:34.964Z,16.15
2022-09-17T20:03:38.030Z,17.25
2022-09-17T20:05:39.429Z,19.67
2022-09-17T20:07:42.731Z,14.93
2022-09-17T20:09:44.924Z,13.80
2022-09-17T20:11:46.326Z,10.23
2022-09-17T20:13:48.153Z,15.70
2022-09-17T20:15:49.988Z,16.17
2022-09-17T20:17:52.052Z,15.23
2022-09-17T20:19:53.569Z,6.07
2022-09-17T20:21:55.086Z,9.27
2022-09-17T20:23:57.161Z,9.80
2022-09-17T20:25:58.561Z,6.78
2022-09-17T20:28:01.587Z,6.45
2022-09-17T20:30:03.173Z,8.68
2022-09-17T20:32:04.851Z,9.27
2022-09-17T20:34:06.289Z,15.45
2022-09-17T20:36:10.584Z,7.13
2022-09-17T20:39:09.510Z,7.88
2022-09-17T20:40:33.590Z,3.97
2022-09-17T20:42:35.094Z,4.63
2022-09-17T20:44:36.501Z,5.55
2022-09-17T20:46:38.176Z,11.60
2022-09-17T20:48:41.380Z,5.38
2022-09-17T20:50:43.120Z,8.15
2022-09-17T20:52:44.500Z,6.57
2022-09-17T20:54:45.922Z,7.82
2022-09-17T20:56:47.338Z,2.72
2022-09-17T20:58:54.311Z,7.25
2022-09-17T21:01:23.976Z,6.50
2022-09-17T21:03:35.823Z,5.88
2022-09-17T21:05:48.753Z,7.38
2022-09-17T21:08:05.849Z,5.78
2022-09-17T21:10:24.666Z,6.32
2022-09-17T21:12:44.823Z,7.05
2022-09-17T21:15:16.571Z,4.80
2022-09-17T21:17:45.002Z,4.63
2022-09-17T21:20:08.704Z,7.25
2022-09-17T21:22:32.330Z,10.93
2022-09-17T21:24:53.106Z,3.22
2022-09-17T21:27:09.199Z,3.00
2022-09-17T21:29:36.572Z,5.18
2022-09-17T21:31:48.600Z,5.53
2022-09-17T21:34:01.923Z,2.67
2022-09-17T21:36:09.659Z,5.10
2022-09-17T21:38:11.171Z,8.82
2022-09-17T21:40:12.573Z,5.70
2022-09-17T21:42:14.047Z,5.30
2022-09-17T21:44:15.471Z,4.45
2022-09-17T21:46:18.249Z,8.60
2022-09-17T21:48:19.754Z,9.75
2022-09-17T21:50:21.210Z,7.63
2022-09-17T21:52:22.655Z,8.35
2022-09-17T21:54:24.127Z,10.30
2022-09-17T21:56:25.686Z,7.50
2022-09-17T21:58:27.110Z,6.82
2022-09-17T22:00:29.298Z,7.97
2022-09-17T22:02:31.443Z,10.00
2022-09-17T22:04:34.724Z,9.10
2022-09-17T22:06:36.347Z,10.30
2022-09-17T22:08:38.086Z,4.72
2022-09-17T22:10:39.702Z,13.07
2022-09-17T22:12:41.130Z,6.75
2022-09-17T22:14:42.942Z,5.72
2022-09-17T22:16:44.930Z,7.40
2022-09-17T22:18:48.687Z,8.32
2022-09-17T22:20:50.367Z,5.97
2022-09-17T22:22:52.157Z,4.47
2022-09-17T22:24:53.555Z,4.45
2022-09-17T22:26:57.794Z,5.95
2022-09-17T22:29:08.162Z,5.25
2022-09-17T22:31:11.042Z,3.60
2022-09-17T22:33:12.528Z,4.63
2022-09-17T22:35:14.286Z,2.72
2022-09-17T22:37:15.804Z,4.10
2022-09-17T22:39:19.098Z,3.13
2022-09-17T22:41:28.674Z,4.60
2022-09-17T22:43:30.258Z,10.00
2022-09-17T22:45:31.711Z,4.03
2022-09-17T22:47:33.202Z,6.63
2022-09-17T22:49:34.816Z,5.47
2022-09-17T22:51:36.427Z,6.97
2022-09-17T22:53:38.328Z,4.10
2022-09-17T22:55:39.802Z,4.80
2022-09-17T22:57:41.305Z,7.20
2022-09-17T22:59:42.833Z,5.85
2022-09-17T23:01:44.281Z,4.18
2022-09-17T23:03:47.171Z,7.57
2022-09-17T23:05:48.642Z,4.80
2022-09-17T23:07:50.054Z,3.40
2022-09-17T23:09:52.082Z,6.20
2022-09-17T23:11:53.474Z,4.35
2022-09-17T23:13:57.539Z,6.38
2022-09-17T23:16:00.301Z,5.43
2022-09-17T23:18:02.698Z,3.45
2022-09-17T23:20:04.893Z,2.25
2022-09-17T23:22:06.456Z,2.30
2022-09-17T23:24:08.924Z,6.10
2022-09-17T23:26:12.067Z,3.50
2022-09-17T23:28:13.535Z,4.15
2022-09-17T23:30:14.983Z,2.10
2022-09-17T23:32:16.381Z,3.38
2022-09-17T23:34:17.878Z,4.53
2022-09-17T23:36:21.674Z,1.83
2022-09-17T23:38:23.641Z,3.45
2022-09-17T23:40:28.613Z,5.75
2022-09-17T23:42:34.215Z,7.63
2022-09-17T23:44:36.186Z,4.43
2022-09-17T23:46:37.705Z,2.72
2022-09-17T23:48:39.398Z,3.03
2022-09-17T23:50:42.403Z,2.90
2022-09-17T23:52:43.867Z,1.30
2022-09-17T23:54:45.266Z,6.95
2022-09-17T23:56:46.758Z,2.78
2022-09-17T23:58:48.658Z,4.68
